createdAt,value
2022-09-06T00:01:10.900Z,2.45
2022-09-06T00:03:56.091Z,3.08
2022-09-06T00:06:40.839Z,2.60
2022-09-06T00:09:26.149Z,2.72
2022-09-06T00:12:10.813Z,2.35
2022-09-06T00:14:56.267Z,2.17
2022-09-06T00:17:41.335Z,2.40
2022-09-06T00:20:30.334Z,2.40
2022-09-06T00:23:15.334Z,2.40
2022-09-06T00:26:04.998Z,2.53
2022-09-06T00:28:49.932Z,2.42
2022-09-06T00:31:35.155Z,2.40
2022-09-06T00:34:19.938Z,2.60
2022-09-06T00:37:04.872Z,2.22
2022-09-06T00:39:49.931Z,2.40
2022-09-06T00:42:34.739Z,2.10
2022-09-06T00:45:20.340Z,2.28
2022-09-06T00:48:05.634Z,2.03
2022-09-06T00:50:58.525Z,2.63
2022-09-06T00:53:44.016Z,2.50
2022-09-06T00:56:30.960Z,2.63
2022-09-06T00:59:16.725Z,2.45
2022-09-06T01:02:02.265Z,2.70
2022-09-06T01:04:49.019Z,2.20
2022-09-06T01:07:45.887Z,2.70
2022-09-06T01:10:52.950Z,2.58
2022-09-06T01:13:47.543Z,2.17
2022-09-06T01:17:03.223Z,2.30
2022-09-06T01:19:48.086Z,2.28
2022-09-06T01:22:44.951Z,2.60
2022-09-06T01:25:45.940Z,2.80
2022-09-06T01:28:34.181Z,2.72
2022-09-06T01:31:25.853Z,2.53
2022-09-06T01:34:19.181Z,3.13
2022-09-06T01:37:17.380Z,2.90
2022-09-06T01:40:02.274Z,2.83
2022-09-06T01:42:49.079Z,2.90
2022-09-06T01:45:56.593Z,2.72
2022-09-06T01:49:12.730Z,3.10
2022-09-06T01:52:11.470Z,2.70
2022-09-06T01:55:12.824Z,2.97
2022-09-06T01:58:13.125Z,3.28
2022-09-06T02:01:14.191Z,3.17
2022-09-06T02:04:12.895Z,3.17
2022-09-06T02:07:10.367Z,3.78
2022-09-06T02:09:59.999Z,3.42
2022-09-06T02:12:49.572Z,3.80
2022-09-06T02:15:39.057Z,3.60
2022-09-06T02:18:31.343Z,3.28
2022-09-06T02:21:21.219Z,4.03
2022-09-06T02:24:11.555Z,4.25
2022-09-06T02:26:57.612Z,4.60
2022-09-06T02:29:42.275Z,4.15
2022-09-06T02:32:29.800Z,4.50
2022-09-06T02:35:16.460Z,4.60
2022-09-06T02:38:02.183Z,3.92
2022-09-06T02:40:48.081Z,4.15
2022-09-06T02:43:33.288Z,5.05
2022-09-06T02:46:18.228Z,5.38
2022-09-06T02:49:03.627Z,5.30
2022-09-06T02:51:48.776Z,5.13
2022-09-06T02:54:34.067Z,5.65
2022-09-06T02:57:19.679Z,5.88
2022-09-06T03:00:05.223Z,5.45
2022-09-06T03:02:50.120Z,5.28
2022-09-06T03:05:35.238Z,5.53
2022-09-06T03:08:23.138Z,5.45
2022-09-06T03:11:08.098Z,5.80
2022-09-06T03:13:53.418Z,6.32
2022-09-06T03:16:38.242Z,6.10
2022-09-06T03:19:23.191Z,7.32
2022-09-06T03:22:08.242Z,7.93
2022-09-06T03:24:53.607Z,8.05
2022-09-06T03:27:39.163Z,9.07
2022-09-06T03:30:24.201Z,8.95
2022-09-06T03:33:09.448Z,9.13
2022-09-06T03:36:00.050Z,8.70
2022-09-06T03:38:44.963Z,10.32
2022-09-06T03:41:29.981Z,12.00
2022-09-06T03:44:15.011Z,14.10
2022-09-06T03:46:59.899Z,14.82
2022-09-06T03:49:44.890Z,14.32
2022-09-06T03:52:29.952Z,14.52
2022-09-06T03:55:15.970Z,14.73
2022-09-06T03:58:00.806Z,16.55
2022-09-06T04:00:46.221Z,18.42
2022-09-06T04:03:31.601Z,18.48
2022-09-06T04:06:16.773Z,19.38
2022-09-06T04:09:01.874Z,19.75
2022-09-06T04:11:46.848Z,19.73
2022-09-06T04:14:32.396Z,20.50
2022-09-06T04:17:17.535Z,20.48
2022-09-06T04:20:04.092Z,21.35
2022-09-06T04:22:49.523Z,22.23
2022-09-06T04:25:34.664Z,23.38
2022-09-06T04:28:21.198Z,23.70
2022-09-06T04:31:05.963Z,24.05
2022-09-06T04:33:50.924Z,24.70
2022-09-06T04:36:36.767Z,24.60
2022-09-06T04:39:21.838Z,24.40
2022-09-06T04:42:06.989Z,26.52
2022-09-06T04:44:51.822Z,24.85
2022-09-06T04:47:36.983Z,24.20
2022-09-06T04:50:21.798Z,23.38
2022-09-06T04:53:07.698Z,23.70
2022-09-06T04:55:52.873Z,24.60
2022-09-06T04:58:37.788Z,24.20
2022-09-06T05:01:25.925Z,24.48
2022-09-06T05:04:10.972Z,25.98
2022-09-06T05:07:04.515Z,23.42
2022-09-06T05:09:50.062Z,24.45
2022-09-06T05:12:35.781Z,25.23
2022-09-06T05:15:22.371Z,24.98
2022-09-06T05:18:07.169Z,25.77
2022-09-06T05:20:53.535Z,24.05
2022-09-06T05:23:38.649Z,27.10
2022-09-06T05:26:24.056Z,26.98
2022-09-06T05:29:09.087Z,24.35
2022-09-06T05:31:54.866Z,28.33
2022-09-06T05:34:39.931Z,27.17
2022-09-06T05:37:25.088Z,28.40
2022-09-06T05:40:10.307Z,28.33
2022-09-06T05:42:55.527Z,28.38
2022-09-06T05:45:40.587Z,27.52
2022-09-06T05:48:25.639Z,28.80
2022-09-06T05:51:12.742Z,27.33
2022-09-06T05:53:58.046Z,27.75
2022-09-06T05:56:43.043Z,28.27
2022-09-06T05:59:28.388Z,28.77
2022-09-06T06:02:13.597Z,29.38
2022-09-06T06:04:58.600Z,30.17
2022-09-06T06:07:43.603Z,29.30
2022-09-06T06:10:28.627Z,29.92
2022-09-06T06:13:13.645Z,29.88
2022-09-06T06:15:59.158Z,30.85
2022-09-06T06:18:48.791Z,29.38
2022-09-06T06:21:40.563Z,29.77
2022-09-06T06:24:26.000Z,28.50
2022-09-06T06:27:13.022Z,28.42
2022-09-06T06:29:58.100Z,27.38
2022-09-06T06:32:43.057Z,27.75
2022-09-06T06:35:28.312Z,25.70
2022-09-06T06:38:15.225Z,26.08
2022-09-06T06:41:05.831Z,26.98
2022-09-06T06:43:56.642Z,25.73
2022-09-06T06:46:41.819Z,22.05
2022-09-06T06:49:27.874Z,23.95
2022-09-06T06:52:13.079Z,23.95
2022-09-06T06:54:58.371Z,23.20
2022-09-06T06:57:43.501Z,24.73
2022-09-06T07:00:36.494Z,24.60
2022-09-06T07:03:21.502Z,25.05
2022-09-06T07:08:52.598Z,23.88
2022-09-06T07:11:37.882Z,23.92
2022-09-06T07:14:23.029Z,24.23
2022-09-06T07:17:35.324Z,23.63
2022-09-06T07:20:21.968Z,23.73
2022-09-06T07:26:23.677Z,22.92
2022-09-06T07:29:08.761Z,22.58
2022-09-06T07:32:12.534Z,22.35
2022-09-06T07:34:57.898Z,24.65
2022-09-06T07:37:42.794Z,24.60
2022-09-06T07:40:30.203Z,25.45
2022-09-06T07:43:15.881Z,23.73
2022-09-06T07:46:03.719Z,25.33
2022-09-06T07:48:49.306Z,23.55
2022-09-06T07:51:34.473Z,23.13
2022-09-06T07:54:30.538Z,23.23
2022-09-06T08:00:03.119Z,22.13
2022-09-06T08:02:56.957Z,21.40
2022-09-06T08:09:03.195Z,19.30
2022-09-06T08:11:50.768Z,19.02
2022-09-06T08:15:00.485Z,17.38
2022-09-06T08:17:48.292Z,16.77
2022-09-06T08:20:33.650Z,15.35
2022-09-06T08:23:18.357Z,13.88
2022-09-06T08:26:04.402Z,12.98
2022-09-06T08:28:59.653Z,12.73
2022-09-06T08:31:46.045Z,12.70
2022-09-06T08:34:35.360Z,11.80
2022-09-06T08:37:27.151Z,11.80
2022-09-06T08:40:18.801Z,9.80
2022-09-06T08:43:03.913Z,9.30
2022-09-06T08:46:57.832Z,7.80
2022-09-06T08:50:13.809Z,8.20
2022-09-06T08:53:23.566Z,7.88
2022-09-06T09:11:36.599Z,7.07
2022-09-06T09:21:01.274Z,6.18
2022-09-06T09:23:54.770Z,6.80
2022-09-06T09:26:47.419Z,4.63
2022-09-06T09:29:36.286Z,5.53
2022-09-06T09:32:39.165Z,4.47
2022-09-06T09:38:23.977Z,4.70
2022-09-06T09:41:23.429Z,4.20
2022-09-06T09:44:18.507Z,2.70
2022-09-06T09:47:23.338Z,2.60
2022-09-06T09:50:28.372Z,3.53
2022-09-06T09:53:22.711Z,3.97
2022-09-06T09:56:10.287Z,5.40
2022-09-06T09:58:58.561Z,5.07
2022-09-06T10:10:29.093Z,5.25
2022-09-06T10:13:41.676Z,4.85
2022-09-06T10:16:44.763Z,4.85
2022-09-06T10:19:40.602Z,4.85
2022-09-06T10:22:50.643Z,4.53
2022-09-06T10:26:03.443Z,4.95
2022-09-06T10:29:41.154Z,5.20
2022-09-06T10:33:04.273Z,5.97
2022-09-06T10:35:56.616Z,5.05
2022-09-06T10:39:05.802Z,5.57
2022-09-06T10:42:29.186Z,5.93
2022-09-06T10:53:34.570Z,5.82
2022-09-06T10:56:31.389Z,5.70
2022-09-06T10:59:38.781Z,5.95
2022-09-06T11:06:08.132Z,5.63
2022-09-06T11:11:53.921Z,5.32
2022-09-06T11:14:42.962Z,5.45
2022-09-06T11:17:54.253Z,6.82
2022-09-06T11:20:47.202Z,7.22
2022-09-06T11:24:20.201Z,7.05
2022-09-06T11:27:19.387Z,8.15
2022-09-06T11:30:06.287Z,8.02
2022-09-06T11:33:28.380Z,8.75
2022-09-06T11:36:32.145Z,8.15
2022-09-06T11:42:48.347Z,9.10
2022-09-06T11:45:49.434Z,8.27
2022-09-06T11:48:48.594Z,9.63
2022-09-06T11:51:41.063Z,11.52
2022-09-06T11:54:44.502Z,11.73
2022-09-06T11:57:32.485Z,12.05
2022-09-06T12:00:23.238Z,10.35
2022-09-06T12:06:22.375Z,8.27
2022-09-06T12:09:28.317Z,9.57
2022-09-06T12:12:40.348Z,10.48
2022-09-06T12:15:31.745Z,9.98
2022-09-06T12:18:50.932Z,10.55
2022-09-06T12:21:51.619Z,11.00
2022-09-06T12:24:38.643Z,10.40
2022-09-06T12:27:26.409Z,9.70
2022-09-06T12:30:13.679Z,10.45
2022-09-06T12:33:00.168Z,10.35
2022-09-06T12:36:03.296Z,9.20
2022-09-06T12:38:57.470Z,7.35
2022-09-06T12:41:49.747Z,6.35
2022-09-06T12:44:43.039Z,6.20
2022-09-06T12:47:32.282Z,6.25
2022-09-06T12:50:23.451Z,5.32
2022-09-06T12:53:26.065Z,4.82
2022-09-06T12:56:12.023Z,4.78
2022-09-06T12:59:17.407Z,4.70
2022-09-06T13:02:12.376Z,4.63
2022-09-06T13:05:07.982Z,4.65
2022-09-06T13:07:55.296Z,4.85
2022-09-06T13:10:44.909Z,4.22
2022-09-06T13:13:29.919Z,5.25
2022-09-06T13:16:42.045Z,4.20
2022-09-06T13:19:34.243Z,4.82
2022-09-06T13:22:42.752Z,4.05
2022-09-06T13:25:28.068Z,4.13
2022-09-06T13:28:27.170Z,4.07
2022-09-06T13:31:18.544Z,3.72
2022-09-06T13:34:03.408Z,3.90
2022-09-06T13:36:52.978Z,3.60
2022-09-06T13:39:46.452Z,3.90
2022-09-06T13:42:36.047Z,3.45
2022-09-06T13:45:28.052Z,3.05
2022-09-06T13:48:36.286Z,3.30
2022-09-06T13:51:18.465Z,3.90
2022-09-06T13:54:13.939Z,3.10
2022-09-06T13:57:01.118Z,2.70
2022-09-06T13:59:46.060Z,2.63
2022-09-06T14:02:31.907Z,2.20
2022-09-06T14:05:17.721Z,2.33
2022-09-06T14:08:02.772Z,2.47
2022-09-06T14:10:47.825Z,2.20
2022-09-06T14:13:32.534Z,2.25
2022-09-06T14:16:17.591Z,1.92
2022-09-06T14:19:04.009Z,2.20
2022-09-06T14:21:49.207Z,2.08
2022-09-06T14:24:34.184Z,2.22
2022-09-06T14:27:19.141Z,2.10
2022-09-06T14:30:04.418Z,2.50
2022-09-06T14:32:49.526Z,2.25
2022-09-06T14:35:34.590Z,1.90
2022-09-06T14:38:19.464Z,2.10
2022-09-06T14:41:06.092Z,2.10
2022-09-06T14:43:53.831Z,1.98
2022-09-06T14:46:38.881Z,1.98
2022-09-06T14:49:24.322Z,1.95
2022-09-06T14:52:13.547Z,1.95
2022-09-06T14:54:58.825Z,1.70
2022-09-06T14:57:44.063Z,1.85
2022-09-06T15:00:29.109Z,2.25
2022-09-06T15:03:13.904Z,2.13
2022-09-06T15:05:58.767Z,2.35
2022-09-06T15:08:44.421Z,3.78
2022-09-06T15:11:36.211Z,2.78
2022-09-06T15:14:26.588Z,1.85
2022-09-06T15:17:12.615Z,1.80
2022-09-06T15:19:58.115Z,1.60
2022-09-06T15:22:43.448Z,1.70
2022-09-06T15:25:28.638Z,1.30
2022-09-06T15:28:14.724Z,1.70
2022-09-06T15:31:00.194Z,1.38
2022-09-06T15:33:45.761Z,1.63
2022-09-06T15:36:32.748Z,1.92
2022-09-06T15:39:18.597Z,1.40
2022-09-06T15:42:03.866Z,1.58
2022-09-06T15:44:48.740Z,1.58
2022-09-06T15:47:34.811Z,1.70
2022-09-06T15:50:40.630Z,1.63
2022-09-06T15:53:24.919Z,1.92
2022-09-06T15:56:12.544Z,1.70
2022-09-06T15:58:57.814Z,1.90
2022-09-06T16:01:42.753Z,1.60
2022-09-06T16:04:27.728Z,1.63
2022-09-06T16:07:13.274Z,1.70
2022-09-06T16:10:00.825Z,1.52
2022-09-06T16:12:49.981Z,1.90
2022-09-06T16:15:35.968Z,1.67
2022-09-06T16:18:20.861Z,1.75
2022-09-06T16:21:13.708Z,1.88
2022-09-06T16:24:02.785Z,1.83
2022-09-06T16:26:48.705Z,2.05
2022-09-06T16:29:33.935Z,2.28
2022-09-06T16:32:19.586Z,2.55
2022-09-06T16:35:06.927Z,2.67
2022-09-06T16:37:53.873Z,3.00
2022-09-06T16:40:44.763Z,2.72
2022-09-06T16:43:32.950Z,2.67
2022-09-06T16:46:19.142Z,3.33
2022-09-06T16:49:05.764Z,3.42
2022-09-06T16:51:50.636Z,3.85
2022-09-06T16:54:36.949Z,3.00
2022-09-06T16:57:22.684Z,3.15
2022-09-06T17:00:08.767Z,3.17
2022-09-06T17:03:15.718Z,3.10
2022-09-06T17:06:01.007Z,3.20
2022-09-06T17:08:47.011Z,3.10
2022-09-06T17:11:32.302Z,3.72
2022-09-06T17:14:18.223Z,3.08
2022-09-06T17:17:06.594Z,3.00
2022-09-06T17:19:51.860Z,2.92
2022-09-06T17:22:37.306Z,3.03
2022-09-06T17:25:22.693Z,2.80
2022-09-06T17:28:07.905Z,3.08
2022-09-06T17:30:53.087Z,2.47
2022-09-06T17:33:38.755Z,2.97
2022-09-06T17:36:29.990Z,2.72
2022-09-06T17:39:17.851Z,2.45
2022-09-06T17:42:03.575Z,2.88
2022-09-06T17:44:48.619Z,2.47
2022-09-06T17:47:34.705Z,2.35
2022-09-06T17:50:20.253Z,2.10
2022-09-06T17:53:05.180Z,2.45
2022-09-06T17:55:52.043Z,2.03
2022-09-06T17:58:38.445Z,2.20
2022-09-06T18:01:25.988Z,1.98
2022-09-06T18:04:13.053Z,2.17
2022-09-06T18:06:58.204Z,2.50
2022-09-06T18:09:43.662Z,2.35
2022-09-06T18:12:30.725Z,2.65
2022-09-06T18:15:15.868Z,2.80
2022-09-06T18:18:00.885Z,2.20
2022-09-06T18:20:46.764Z,2.22
2022-09-06T18:23:33.538Z,2.10
2022-09-06T18:26:18.686Z,2.00
2022-09-06T18:29:06.482Z,1.95
2022-09-06T18:31:53.711Z,2.08
2022-09-06T18:34:39.537Z,2.13
2022-09-06T18:37:25.595Z,2.17
2022-09-06T18:40:11.012Z,2.38
2022-09-06T18:42:55.793Z,2.30
2022-09-06T18:45:41.488Z,2.25
2022-09-06T18:48:28.525Z,2.17
2022-09-06T18:51:15.805Z,2.42
2022-09-06T18:54:01.541Z,1.98
2022-09-06T18:56:49.390Z,2.08
2022-09-06T18:59:34.568Z,2.00
2022-09-06T19:02:21.910Z,1.90
2022-09-06T19:05:06.944Z,2.20
2022-09-06T19:07:52.226Z,2.13
2022-09-06T19:10:37.108Z,2.03
2022-09-06T19:13:23.180Z,2.17
2022-09-06T19:16:09.727Z,2.20
2022-09-06T19:18:56.301Z,1.90
2022-09-06T19:21:42.583Z,1.90
2022-09-06T19:24:28.319Z,2.03
2022-09-06T19:27:13.826Z,2.10
2022-09-06T19:29:59.173Z,2.15
2022-09-06T19:32:44.087Z,2.42
2022-09-06T19:35:28.912Z,2.90
2022-09-06T19:38:14.244Z,2.63
2022-09-06T19:41:13.797Z,3.40
2022-09-06T19:43:59.953Z,3.58
2022-09-06T19:46:46.599Z,3.92
2022-09-06T19:49:31.972Z,3.60
2022-09-06T19:52:17.379Z,3.17
2022-09-06T19:55:02.495Z,3.58
2022-09-06T19:57:47.320Z,3.35
2022-09-06T20:00:35.563Z,3.13
2022-09-06T20:03:21.225Z,3.50
2022-09-06T20:06:07.567Z,3.15
2022-09-06T20:08:54.500Z,3.20
2022-09-06T20:11:40.721Z,2.88
2022-09-06T20:14:25.858Z,3.10
2022-09-06T20:17:32.189Z,2.72
2022-09-06T20:20:16.181Z,2.83
2022-09-06T20:23:01.599Z,2.85
2022-09-06T20:25:47.423Z,3.08
2022-09-06T20:28:33.774Z,3.47
2022-09-06T20:31:20.122Z,3.22
2022-09-06T20:34:06.095Z,3.30
2022-09-06T20:36:50.917Z,3.45
2022-09-06T20:39:36.168Z,3.55
2022-09-06T20:42:21.027Z,3.53
2022-09-06T20:45:06.729Z,3.35
2022-09-06T20:47:52.198Z,3.50
2022-09-06T20:50:37.509Z,3.60
2022-09-06T20:53:22.624Z,3.20
2022-09-06T20:56:11.610Z,3.45
2022-09-06T20:59:01.930Z,3.17
2022-09-06T21:01:47.470Z,4.75
2022-09-06T21:04:32.817Z,5.03
2022-09-06T21:07:18.021Z,5.35
2022-09-06T21:10:03.326Z,5.60
2022-09-06T21:12:49.706Z,5.68
2022-09-06T21:15:36.766Z,5.65
2022-09-06T21:18:22.850Z,6.00
2022-09-06T21:21:08.884Z,6.60
2022-09-06T21:23:54.972Z,7.45
2022-09-06T21:26:42.610Z,8.70
2022-09-06T21:29:27.476Z,10.02
2022-09-06T21:32:13.186Z,9.05
2022-09-06T21:34:58.312Z,8.15
2022-09-06T21:37:43.178Z,6.97
2022-09-06T21:40:28.058Z,6.30
2022-09-06T21:43:13.100Z,6.22
2022-09-06T21:46:10.578Z,5.55
2022-09-06T21:48:55.885Z,4.85
2022-09-06T21:51:41.220Z,4.40
2022-09-06T21:54:26.536Z,5.13
2022-09-06T21:57:11.548Z,6.18
2022-09-06T21:59:56.457Z,7.63
2022-09-06T22:02:42.335Z,8.52
2022-09-06T22:05:27.703Z,8.98
2022-09-06T22:08:13.295Z,9.15
2022-09-06T22:11:17.246Z,9.60
2022-09-06T22:16:48.468Z,9.35
2022-09-06T22:19:33.731Z,9.85
2022-09-06T22:22:18.947Z,9.55
2022-09-06T22:25:04.219Z,9.55
2022-09-06T22:27:49.519Z,9.80
2022-09-06T22:30:34.492Z,9.27
2022-09-06T22:33:19.553Z,8.95
2022-09-06T22:36:05.373Z,9.93
2022-09-06T22:39:00.223Z,8.57
2022-09-06T22:41:45.266Z,7.43
2022-09-06T22:44:30.493Z,7.30
2022-09-06T22:47:15.968Z,6.30
2022-09-06T22:50:00.803Z,6.25
2022-09-06T22:52:45.938Z,6.78
2022-09-06T22:55:30.795Z,6.00
2022-09-06T22:58:15.707Z,6.10
2022-09-06T23:01:27.564Z,6.15
2022-09-06T23:04:12.558Z,6.85
2022-09-06T23:06:59.013Z,6.72
2022-09-06T23:09:44.516Z,6.90
2022-09-06T23:12:29.146Z,8.98
2022-09-06T23:15:14.442Z,8.93
2022-09-06T23:17:59.491Z,7.57
2022-09-06T23:20:44.458Z,6.55
2022-09-06T23:23:30.536Z,6.97
2022-09-06T23:26:20.791Z,6.63
2022-09-06T23:29:05.780Z,7.25
2022-09-06T23:31:50.591Z,7.20
2022-09-06T23:34:36.535Z,7.90
2022-09-06T23:37:21.999Z,8.00
2022-09-06T23:40:09.233Z,9.50
2022-09-06T23:42:54.249Z,9.48
2022-09-06T23:45:39.264Z,10.35
2022-09-06T23:48:24.724Z,8.73
2022-09-06T23:51:11.212Z,10.18
2022-09-06T23:53:56.169Z,7.78
2022-09-06T23:56:41.120Z,8.48
2022-09-06T23:59:25.977Z,8.68
